Terminal Aerodrome Forecast
Issued by NWS

Home | Current Version | Previous Version | Text Only | Print | Product List | Glossary On
Versions: 1 2 3 4 5 6 7 8 9 10 11 12 13 14 15 16 17 18 19 20 21 22
000
FTUS41 KOKX 310500 RRA
TAFHPN
TAF
KHPN 310546Z 3106/0106 18004KT P6SM SCT025 BKN035
      TEMPO 3107/3109 SCT015 BKN025
     FM310900 VRB03KT 5SM BR BKN010
     FM311500 19007KT 6SM HZ SCT015 BKN035
     FM312000 18007KT P6SM SCT040 SCT080 BKN150
     FM312200 19006KT 4SM SHRA BR SCT040 BKN080 PROB30 3122/0104
      TSRA BKN040CB
     FM010400 23004KT 4SM SHRA BR FEW025 BKN040
      AMD NOT SKED=

USA.gov is the U.S. government's official web portal to all federal, state and local government web resources and services.